Time;durP1;ratioP1;P1;durP2;ratioP2;P2;SDS_P1;SDS_P2;PMS_P1;PMS_P2;Temp;Humidity;BMP_temperature;BMP_pressure;BME280_temperature;BME280_humidity;BME280_pressure;Samples;Min_cycle;Max_cycle;Signal;HPM_P1;HPM_P2
2021/09/19 00:02:12;;;;;;;3.70;1.70;;;20.10;65.00;;;;;;5014436;28;20496;-70
2021/09/19 00:04:38;;;;;;;2.63;1.52;;;20.10;64.50;;;;;;5014428;28;20116;-70
2021/09/19 00:07:04;;;;;;;3.55;1.50;;;20.10;64.60;;;;;;5014278;28;20061;-70
2021/09/19 00:09:30;;;;;;;3.70;1.60;;;20.10;64.40;;;;;;5014159;28;20438;-70
2021/09/19 00:11:55;;;;;;;5.95;1.80;;;20.10;64.40;;;;;;5014198;28;20037;-70
2021/09/19 00:14:21;;;;;;;1.90;1.80;;;20.10;64.00;;;;;;5014259;28;20034;-70
2021/09/19 00:16:48;;;;;;;1.52;1.42;;;20.10;63.90;;;;;;5014062;28;20058;-70
2021/09/19 00:19:14;;;;;;;4.57;1.55;;;20.10;63.70;;;;;;5014242;28;20038;-70
2021/09/19 00:21:40;;;;;;;2.60;1.50;;;20.20;63.70;;;;;;5014389;28;20026;-70
2021/09/19 00:24:06;;;;;;;2.53;1.55;;;20.10;63.70;;;;;;5013801;28;20104;-70
2021/09/19 00:26:32;;;;;;;2.85;1.40;;;20.10;63.80;;;;;;5013802;28;20045;-70
2021/09/19 00:28:57;;;;;;;1.63;1.50;;;20.10;63.70;;;;;;5014058;28;20034;-70
2021/09/19 00:31:23;;;;;;;4.13;1.58;;;20.10;63.50;;;;;;5014094;28;20386;-70
2021/09/19 00:33:49;;;;;;;3.17;1.45;;;20.10;63.50;;;;;;5014046;28;20033;-70
2021/09/19 00:36:15;;;;;;;5.07;2.08;;;20.10;63.60;;;;;;5013735;28;20030;-70
2021/09/19 00:38:40;;;;;;;5.20;2.10;;;20.10;63.80;;;;;;5014167;28;20030;-70
2021/09/19 00:41:06;;;;;;;6.35;2.00;;;20.00;64.50;;;;;;5013762;28;20425;-70
2021/09/19 00:43:32;;;;;;;2.80;1.80;;;20.00;65.20;;;;;;4996069;28;20056;-70
2021/09/19 00:45:57;;;;;;;5.07;2.10;;;20.00;66.20;;;;;;5013711;28;20037;-69
2021/09/19 00:48:23;;;;;;;4.00;2.13;;;19.80;66.80;;;;;;5013983;28;20065;-69
2021/09/19 00:50:49;;;;;;;1.98;1.50;;;19.70;67.60;;;;;;5013783;28;20037;-69
2021/09/19 00:53:15;;;;;;;2.55;1.85;;;19.60;67.40;;;;;;5013752;28;20429;-70
2021/09/19 00:55:43;;;;;;;2.88;1.52;;;19.60;67.70;;;;;;5012122;28;20053;-70
2021/09/19 00:58:11;;;;;;;2.70;1.70;;;19.60;67.60;;;;;;5013414;28;20490;-70
2021/09/19 01:00:37;;;;;;;1.88;1.55;;;19.60;67.50;;;;;;5013795;28;20030;-70
2021/09/19 01:03:04;;;;;;;3.03;1.70;;;19.60;67.30;;;;;;5013241;28;20141;-70
2021/09/19 01:05:30;;;;;;;3.08;1.70;;;19.60;67.00;;;;;;5013297;28;20494;-70
2021/09/19 01:07:56;;;;;;;6.85;2.10;;;19.70;67.10;;;;;;5013659;28;20112;-70
2021/09/19 01:10:24;;;;;;;2.88;1.98;;;19.60;67.80;;;;;;5013339;28;20115;-70
2021/09/19 01:12:54;;;;;;;5.70;2.10;;;19.70;68.10;;;;;;5013712;28;20084;-70
2021/09/19 01:15:22;;;;;;;4.07;1.95;;;19.70;67.80;;;;;;5017666;28;20034;-70
2021/09/19 01:17:48;;;;;;;5.57;2.03;;;19.70;68.00;;;;;;5017416;28;20034;-70
2021/09/19 01:20:15;;;;;;;3.40;2.20;;;19.60;68.40;;;;;;5017366;28;20091;-70
2021/09/19 01:22:58;;;;;;;4.03;2.42;;;19.60;68.90;;;;;;5017180;28;20038;-70
2021/09/19 01:25:23;;;;;;;5.28;2.20;;;19.50;69.00;;;;;;5017534;28;20038;-70
2021/09/19 01:27:49;;;;;;;2.72;1.83;;;19.60;69.30;;;;;;5016982;28;20505;-70
2021/09/19 01:30:15;;;;;;;2.90;1.73;;;19.60;69.40;;;;;;5017321;28;20096;-70
2021/09/19 01:32:41;;;;;;;2.60;1.88;;;19.60;68.90;;;;;;5017542;28;20449;-70
2021/09/19 01:35:08;;;;;;;6.47;1.70;;;19.60;68.10;;;;;;5016705;28;20037;-70
2021/09/19 01:37:34;;;;;;;1.95;1.38;;;19.60;67.80;;;;;;5016820;28;20034;-70
2021/09/19 01:40:00;;;;;;;3.90;1.42;;;19.60;67.20;;;;;;5017221;28;20034;-72
2021/09/19 01:42:27;;;;;;;2.53;1.40;;;19.70;66.70;;;;;;5017221;28;20474;-70
2021/09/19 01:44:53;;;;;;;1.90;1.40;;;19.70;66.30;;;;;;5016632;28;20537;-69
2021/09/19 01:47:18;;;;;;;3.42;1.50;;;19.80;65.80;;;;;;5016849;28;20062;-70
2021/09/19 01:49:49;;;;;;;6.47;1.70;;;19.80;65.90;;;;;;5017206;28;20029;-70
2021/09/19 01:52:17;;;;;;;4.88;1.80;;;19.80;66.40;;;;;;5016520;28;20042;-70
2021/09/19 01:54:42;;;;;;;3.28;2.00;;;19.80;66.60;;;;;;5016834;28;20101;-70
2021/09/19 01:57:08;;;;;;;6.28;1.52;;;19.80;67.00;;;;;;5016895;28;20133;-70
2021/09/19 01:59:35;;;;;;;2.72;1.50;;;19.80;67.80;;;;;;5016346;28;20049;-70
2021/09/19 02:02:01;;;;;;;2.55;2.10;;;19.80;67.90;;;;;;4999305;28;20053;-69
2021/09/19 02:04:27;;;;;;;3.72;2.08;;;19.70;68.00;;;;;;5016404;28;20061;-70
2021/09/19 02:06:53;;;;;;;2.92;2.00;;;19.60;68.20;;;;;;5016752;28;20030;-70
2021/09/19 02:09:19;;;;;;;5.90;2.17;;;19.60;68.60;;;;;;5016985;28;20061;-70
2021/09/19 02:11:44;;;;;;;3.15;1.63;;;19.50;68.70;;;;;;5014969;28;20127;-70
2021/09/19 02:14:10;;;;;;;3.25;1.92;;;19.50;68.90;;;;;;5016484;28;20038;-70
2021/09/19 02:16:36;;;;;;;5.00;1.80;;;19.50;68.70;;;;;;5016506;28;20117;-70
2021/09/19 02:19:01;;;;;;;4.95;1.80;;;19.50;68.70;;;;;;5016543;28;20041;-70
2021/09/19 02:21:27;;;;;;;2.75;1.80;;;19.50;68.70;;;;;;5016339;28;20061;-69
2021/09/19 02:23:53;;;;;;;4.00;1.75;;;19.50;68.80;;;;;;5015759;28;20045;-70
2021/09/19 02:26:19;;;;;;;3.72;2.10;;;19.50;69.40;;;;;;5015263;28;20480;-70
2021/09/19 02:28:45;;;;;;;5.30;2.42;;;19.50;69.70;;;;;;5016577;28;20030;-70
2021/09/19 02:31:11;;;;;;;2.40;1.75;;;19.50;69.80;;;;;;5016277;28;20113;-70
2021/09/19 02:33:36;;;;;;;2.13;1.92;;;19.50;70.00;;;;;;5015694;28;20038;-70
2021/09/19 02:36:03;;;;;;;2.72;1.75;;;19.40;69.80;;;;;;5016075;28;20038;-69
2021/09/19 02:38:29;;;;;;;3.67;1.90;;;19.50;69.50;;;;;;5015934;28;20104;-70
2021/09/19 02:40:55;;;;;;;2.03;1.70;;;19.50;69.10;;;;;;5016416;28;20065;-70
2021/09/19 02:43:22;;;;;;;2.70;1.90;;;19.50;68.80;;;;;;5015962;28;20092;-70
2021/09/19 02:45:50;;;;;;;6.45;1.65;;;19.50;68.50;;;;;;5015429;28;20061;-70
2021/09/19 02:48:16;;;;;;;3.83;1.65;;;19.50;68.20;;;;;;5015556;28;20034;-70
2021/09/19 02:50:42;;;;;;;4.68;1.60;;;19.50;68.10;;;;;;5015516;28;20441;-70
2021/09/19 02:53:08;;;;;;;1.92;1.70;;;19.50;67.80;;;;;;5016091;28;20041;-70
2021/09/19 02:55:33;;;;;;;5.35;1.60;;;19.50;67.40;;;;;;5015773;28;20034;-70
2021/09/19 02:57:59;;;;;;;2.95;1.70;;;19.50;67.30;;;;;;5015727;28;20100;-70
2021/09/19 03:00:25;;;;;;;2.85;1.55;;;19.60;67.10;;;;;;5015546;28;20562;-70
2021/09/19 03:02:51;;;;;;;4.72;1.38;;;19.60;66.40;;;;;;5015094;28;20438;-70
2021/09/19 03:05:18;;;;;;;2.22;1.30;;;19.60;66.40;;;;;;5015385;28;20040;-70
2021/09/19 03:07:44;;;;;;;2.80;1.70;;;19.60;66.30;;;;;;5015392;28;20065;-70
2021/09/19 03:10:11;;;;;;;2.80;1.73;;;19.60;66.50;;;;;;5015062;28;20065;-70
2021/09/19 03:12:37;;;;;;;4.50;2.30;;;19.70;66.50;;;;;;5015130;28;20108;-70
2021/09/19 03:15:04;;;;;;;5.82;1.60;;;19.70;66.00;;;;;;5014876;28;20030;-70
2021/09/19 03:17:30;;;;;;;2.63;1.38;;;19.70;65.80;;;;;;5014959;28;20030;-70
2021/09/19 03:19:56;;;;;;;3.60;1.90;;;19.80;65.90;;;;;;5015236;28;20479;-70
2021/09/19 03:22:21;;;;;;;4.03;1.88;;;19.80;66.80;;;;;;5015038;28;20438;-70
2021/09/19 03:24:47;;;;;;;5.10;2.20;;;19.80;66.50;;;;;;5015202;28;20490;-69
2021/09/19 03:27:14;;;;;;;5.22;1.90;;;19.70;66.90;;;;;;5015468;28;20034;-70
2021/09/19 03:29:40;;;;;;;3.45;1.88;;;19.70;67.10;;;;;;5015281;28;20034;-70
2021/09/19 03:32:06;;;;;;;2.67;1.67;;;19.70;67.30;;;;;;4997344;28;20034;-69
2021/09/19 03:34:35;;;;;;;4.72;1.80;;;19.70;67.40;;;;;;5015029;28;20394;-70
2021/09/19 03:37:01;;;;;;;3.30;1.77;;;19.70;67.80;;;;;;5014373;28;20033;-69
2021/09/19 03:39:27;;;;;;;3.90;1.80;;;19.70;67.90;;;;;;5015017;28;20032;-69
2021/09/19 03:41:53;;;;;;;4.25;1.55;;;19.70;67.80;;;;;;5014668;28;20105;-70
2021/09/19 03:44:19;;;;;;;2.70;1.73;;;19.70;67.90;;;;;;5014685;28;20046;-69
2021/09/19 03:46:44;;;;;;;5.53;1.80;;;19.60;68.40;;;;;;5014871;28;20041;-69
2021/09/19 03:49:10;;;;;;;5.30;1.88;;;19.60;68.70;;;;;;5014582;28;20084;-70
2021/09/19 03:51:36;;;;;;;7.47;1.95;;;19.60;68.60;;;;;;5014692;28;20037;-70
2021/09/19 03:54:01;;;;;;;5.30;1.95;;;19.70;68.30;;;;;;5014641;28;20037;-70
2021/09/19 03:56:28;;;;;;;2.85;1.70;;;19.60;67.90;;;;;;5014290;28;20030;-70
2021/09/19 03:58:53;;;;;;;2.47;1.58;;;19.60;67.70;;;;;;5014355;28;20031;-70
2021/09/19 04:01:19;;;;;;;2.83;1.67;;;19.60;67.90;;;;;;5014323;28;20038;-70
2021/09/19 04:03:44;;;;;;;2.78;1.58;;;19.60;68.20;;;;;;5014450;28;20214;-70
2021/09/19 04:06:10;;;;;;;1.73;1.40;;;19.60;68.30;;;;;;5014440;28;20105;-69
2021/09/19 04:08:36;;;;;;;2.42;1.67;;;19.60;68.10;;;;;;5014401;28;20348;-70
2021/09/19 04:11:02;;;;;;;4.18;1.60;;;19.70;68.10;;;;;;5014141;28;20112;-69
2021/09/19 04:13:28;;;;;;;6.22;1.50;;;19.70;68.00;;;;;;5014431;28;20046;-69
2021/09/19 04:15:53;;;;;;;3.22;1.70;;;19.70;67.60;;;;;;5014230;28;20041;-69
2021/09/19 04:18:19;;;;;;;3.42;1.58;;;19.70;67.40;;;;;;5014117;28;20061;-70
2021/09/19 04:20:45;;;;;;;3.25;1.58;;;19.70;67.40;;;;;;4996515;28;20413;-70
2021/09/19 04:23:11;;;;;;;6.00;2.42;;;19.70;67.40;;;;;;5013940;28;20123;-70
2021/09/19 04:25:37;;;;;;;5.35;1.70;;;19.70;67.40;;;;;;5014285;28;20545;-70
2021/09/19 04:28:03;;;;;;;2.70;1.80;;;19.70;68.00;;;;;;5013634;28;20524;-70
2021/09/19 04:30:29;;;;;;;4.80;1.80;;;19.70;68.10;;;;;;5013955;28;20033;-70
2021/09/19 04:32:55;;;;;;;3.75;1.75;;;19.70;68.60;;;;;;5013999;28;20038;-69
2021/09/19 04:35:21;;;;;;;3.20;1.70;;;19.70;68.60;;;;;;5013691;28;20441;-69
2021/09/19 04:37:46;;;;;;;5.65;1.70;;;19.70;68.40;;;;;;5013726;28;20501;-70
2021/09/19 04:40:12;;;;;;;8.25;2.03;;;19.70;68.50;;;;;;5013939;28;20505;-70
2021/09/19 04:42:38;;;;;;;3.35;1.65;;;19.70;68.80;;;;;;5013703;28;20037;-70
2021/09/19 04:45:05;;;;;;;2.83;1.60;;;19.70;68.50;;;;;;5013875;28;20037;-70
2021/09/19 04:47:31;;;;;;;6.20;1.50;;;19.70;67.90;;;;;;5012904;28;20034;-70
2021/09/19 04:49:57;;;;;;;4.35;1.70;;;19.70;67.10;;;;;;5013755;28;20040;-69
2021/09/19 04:52:23;;;;;;;3.22;1.50;;;19.70;66.70;;;;;;5013698;28;20026;-70
2021/09/19 04:54:48;;;;;;;2.20;1.20;;;19.70;66.40;;;;;;5013381;28;20033;-70
2021/09/19 04:57:14;;;;;;;5.40;1.52;;;19.80;66.30;;;;;;5013494;28;20038;-70
2021/09/19 04:59:40;;;;;;;2.35;1.50;;;19.80;66.70;;;;;;5013648;28;20065;-70
2021/09/19 05:02:06;;;;;;;4.35;1.77;;;19.80;66.90;;;;;;5013728;28;20038;-70
2021/09/19 05:04:32;;;;;;;2.97;1.50;;;19.80;66.90;;;;;;5013535;28;20045;-70
2021/09/19 05:06:58;;;;;;;2.13;1.50;;;19.80;67.10;;;;;;5013192;28;20030;-69
2021/09/19 05:09:23;;;;;;;4.13;1.48;;;19.80;67.30;;;;;;5013262;28;20077;-70
2021/09/19 05:11:49;;;;;;;2.15;1.60;;;19.80;67.20;;;;;;5013692;28;20037;-70
2021/09/19 05:14:15;;;;;;;4.97;1.95;;;19.80;67.50;;;;;;5013510;28;20042;-70
2021/09/19 05:16:41;;;;;;;5.75;1.98;;;19.80;67.90;;;;;;5013518;28;20037;-69
2021/09/19 05:19:06;;;;;;;4.75;1.60;;;19.80;68.70;;;;;;5013506;28;20414;-70
2021/09/19 05:21:32;;;;;;;2.78;1.70;;;19.80;68.90;;;;;;4995976;28;20026;-69
2021/09/19 05:23:58;;;;;;;6.00;1.63;;;19.70;69.00;;;;;;4995323;28;20045;-70
2021/09/19 05:26:24;;;;;;;3.95;1.50;;;19.70;69.00;;;;;;5013249;28;20092;-69
2021/09/19 05:28:49;;;;;;;1.95;1.40;;;19.70;69.20;;;;;;5013287;28;20066;-69
2021/09/19 05:31:15;;;;;;;4.13;1.70;;;19.80;69.50;;;;;;5013376;28;20068;-70
2021/09/19 05:33:42;;;;;;;2.95;1.70;;;19.80;68.30;;;;;;5013306;28;20030;-70
2021/09/19 05:36:08;;;;;;;8.23;1.58;;;19.80;68.40;;;;;;5013644;28;20034;-70
2021/09/19 05:38:34;;;;;;;3.08;1.60;;;19.80;68.40;;;;;;5013102;28;20446;-70
2021/09/19 05:40:59;;;;;;;3.75;1.60;;;19.80;69.10;;;;;;5013619;28;20030;-70
2021/09/19 05:43:25;;;;;;;1.60;1.30;;;19.80;69.40;;;;;;5013317;28;20030;-70
2021/09/19 05:45:51;;;;;;;2.53;1.50;;;19.80;69.90;;;;;;5013452;28;20087;-69
2021/09/19 05:48:16;;;;;;;2.33;1.52;;;19.80;70.10;;;;;;5013009;28;20041;-71
2021/09/19 05:50:42;;;;;;;2.83;1.65;;;19.80;70.30;;;;;;5013248;28;20041;-70
2021/09/19 05:53:08;;;;;;;2.10;1.70;;;19.80;70.10;;;;;;5013217;28;20046;-70
2021/09/19 05:55:33;;;;;;;2.72;1.63;;;19.80;70.00;;;;;;5013485;28;20057;-70
2021/09/19 05:57:59;;;;;;;1.98;1.60;;;19.80;69.90;;;;;;5012144;28;20474;-72
2021/09/19 06:00:25;;;;;;;2.17;1.50;;;19.80;69.60;;;;;;4998019;28;20398;-71
2021/09/19 06:02:50;;;;;;;2.97;1.63;;;19.80;69.00;;;;;;5016376;28;20038;-72
2021/09/19 06:05:16;;;;;;;2.78;1.73;;;19.80;68.30;;;;;;5016108;28;20036;-72
2021/09/19 06:07:42;;;;;;;3.55;1.60;;;19.80;68.00;;;;;;5016405;28;20033;-71
2021/09/19 06:10:08;;;;;;;4.40;1.92;;;19.80;68.00;;;;;;5016121;28;20077;-72
2021/09/19 06:12:34;;;;;;;2.95;1.67;;;19.90;68.10;;;;;;5015896;28;20034;-71
2021/09/19 06:14:59;;;;;;;2.72;1.40;;;19.90;68.20;;;;;;5016101;28;20093;-72
2021/09/19 06:17:25;;;;;;;3.20;1.80;;;19.80;68.10;;;;;;5016416;28;20108;-71
2021/09/19 06:19:51;;;;;;;4.50;1.63;;;19.80;68.20;;;;;;5016158;28;20034;-72
2021/09/19 06:22:18;;;;;;;1.92;1.60;;;19.90;68.10;;;;;;5016815;28;20427;-71
2021/09/19 06:24:44;;;;;;;3.80;1.77;;;19.90;68.00;;;;;;5014660;28;20084;-72
2021/09/19 06:27:12;;;;;;;3.05;1.60;;;19.90;68.20;;;;;;5016269;28;20034;-71
2021/09/19 06:29:38;;;;;;;2.42;1.70;;;20.00;68.40;;;;;;5015921;28;20038;-70
2021/09/19 06:32:05;;;;;;;5.43;1.60;;;20.00;68.40;;;;;;5016350;28;20045;-68
2021/09/19 06:34:31;;;;;;;3.45;1.58;;;20.00;68.20;;;;;;5016078;28;20034;-68
2021/09/19 06:36:56;;;;;;;4.38;1.65;;;20.00;67.90;;;;;;5015980;28;20030;-68
2021/09/19 06:39:22;;;;;;;1.85;1.55;;;20.00;67.90;;;;;;5015253;28;20030;-68
2021/09/19 06:41:51;;;;;;;3.28;1.73;;;20.10;67.70;;;;;;5016257;28;20037;-69
2021/09/19 06:44:17;;;;;;;2.65;1.52;;;20.10;67.50;;;;;;5015809;28;20050;-68
2021/09/19 06:46:43;;;;;;;5.75;1.40;;;20.10;67.40;;;;;;5015782;28;20061;-69
2021/09/19 06:49:09;;;;;;;2.45;1.48;;;20.10;67.50;;;;;;5015721;28;20046;-69
2021/09/19 06:51:34;;;;;;;2.60;1.70;;;20.00;67.50;;;;;;5015757;28;20096;-68
2021/09/19 06:54:00;;;;;;;2.38;1.80;;;20.00;67.50;;;;;;5015572;28;20069;-69
2021/09/19 06:56:26;;;;;;;1.55;1.30;;;20.10;67.70;;;;;;5015955;28;20042;-68
2021/09/19 06:58:52;;;;;;;2.55;1.60;;;20.00;67.60;;;;;;5015642;28;20466;-68
2021/09/19 07:01:21;;;;;;;4.30;1.50;;;20.10;67.70;;;;;;5015534;28;20034;-70
2021/09/19 07:03:49;;;;;;;3.55;1.25;;;20.10;67.80;;;;;;5015328;28;20042;-68
2021/09/19 07:06:15;;;;;;;3.17;1.55;;;20.10;67.70;;;;;;5015306;28;20033;-69
2021/09/19 07:08:40;;;;;;;5.35;1.60;;;20.10;67.70;;;;;;5015362;28;20443;-69
2021/09/19 07:11:06;;;;;;;3.47;1.52;;;20.10;67.80;;;;;;5014400;28;20088;-69
2021/09/19 07:13:32;;;;;;;2.17;1.40;;;20.10;68.10;;;;;;5015018;28;20482;-76
2021/09/19 07:15:58;;;;;;;4.53;1.70;;;20.10;68.10;;;;;;5014967;28;20429;-70
2021/09/19 07:18:24;;;;;;;3.75;1.70;;;20.10;68.20;;;;;;5014720;28;20112;-75
2021/09/19 07:20:53;;;;;;;3.60;1.45;;;20.10;68.90;;;;;;5014980;28;20038;-72
2021/09/19 07:23:20;;;;;;;4.22;1.60;;;20.20;68.40;;;;;;5014724;28;20049;-70
2021/09/19 07:25:46;;;;;;;2.92;1.52;;;20.20;68.20;;;;;;5014545;28;20038;-68
2021/09/19 07:28:12;;;;;;;4.93;1.73;;;20.20;68.20;;;;;;5015008;28;20044;-68
2021/09/19 07:30:39;;;;;;;1.60;1.35;;;20.30;68.10;;;;;;5015003;28;20105;-69
2021/09/19 07:33:05;;;;;;;4.13;1.50;;;20.30;68.10;;;;;;5014844;28;20041;-68
2021/09/19 07:35:30;;;;;;;1.75;1.40;;;20.30;68.00;;;;;;5014440;28;20034;-68
2021/09/19 07:37:56;;;;;;;4.30;1.75;;;20.40;67.80;;;;;;5014761;28;20517;-68
2021/09/19 07:40:22;;;;;;;1.58;1.42;;;20.40;67.50;;;;;;5014729;28;20030;-69
2021/09/19 07:42:48;;;;;;;1.50;1.27;;;20.50;67.40;;;;;;5014503;28;20100;-69
2021/09/19 07:45:15;;;;;;;2.63;1.50;;;20.50;67.20;;;;;;5014437;28;20041;-68
2021/09/19 07:47:42;;;;;;;2.53;1.67;;;20.50;67.10;;;;;;5014622;28;20034;-69
2021/09/19 07:50:09;;;;;;;3.55;1.50;;;20.60;67.40;;;;;;5014997;28;20092;-69
2021/09/19 07:52:35;;;;;;;2.53;1.30;;;20.60;67.70;;;;;;5014662;28;20041;-68
2021/09/19 07:55:00;;;;;;;2.25;1.50;;;20.60;67.30;;;;;;5014736;28;20383;-69
2021/09/19 07:57:26;;;;;;;2.97;1.52;;;20.60;66.70;;;;;;5014443;28;20037;-68
2021/09/19 07:59:53;;;;;;;4.10;1.63;;;20.70;66.60;;;;;;5014681;28;20022;-69
2021/09/19 08:02:21;;;;;;;3.58;1.77;;;20.70;66.40;;;;;;5014535;28;20087;-68
2021/09/19 08:04:47;;;;;;;2.58;1.60;;;20.70;66.40;;;;;;5014169;28;20042;-69
2021/09/19 08:07:13;;;;;;;3.47;1.60;;;20.70;66.00;;;;;;5014347;28;20034;-69
2021/09/19 08:09:39;;;;;;;2.50;1.63;;;20.80;65.60;;;;;;5014162;28;20049;-69
2021/09/19 08:12:06;;;;;;;3.38;1.60;;;20.80;64.90;;;;;;5014453;28;20030;-69
2021/09/19 08:14:32;;;;;;;5.10;1.70;;;20.80;64.80;;;;;;5014076;28;20034;-69
2021/09/19 08:16:59;;;;;;;3.67;1.70;;;20.90;64.90;;;;;;5014215;28;20485;-68
2021/09/19 08:19:26;;;;;;;2.25;1.60;;;20.90;65.10;;;;;;5014331;28;20034;-68
2021/09/19 08:21:51;;;;;;;2.22;1.42;;;20.90;64.20;;;;;;5014051;28;20026;-68
2021/09/19 08:24:17;;;;;;;3.55;1.65;;;20.90;64.10;;;;;;5013940;28;20046;-70
2021/09/19 08:26:43;;;;;;;2.33;1.50;;;21.00;64.00;;;;;;5014038;28;20030;-69
2021/09/19 08:29:11;;;;;;;2.45;1.33;;;21.00;63.90;;;;;;5014047;28;20121;-69
2021/09/19 08:31:38;;;;;;;3.10;1.70;;;21.10;63.90;;;;;;5014058;28;20053;-69
2021/09/19 08:34:04;;;;;;;3.10;1.80;;;21.10;63.50;;;;;;5013814;28;20060;-68
2021/09/19 08:36:30;;;;;;;2.58;1.40;;;21.20;63.50;;;;;;5013945;28;20038;-68
2021/09/19 08:38:56;;;;;;;2.08;1.52;;;21.20;63.50;;;;;;5013959;28;20086;-69
2021/09/19 08:41:22;;;;;;;4.70;1.55;;;21.30;63.30;;;;;;5014015;28;20427;-69
2021/09/19 08:43:49;;;;;;;2.50;1.63;;;21.30;63.40;;;;;;5013534;28;20128;-68
2021/09/19 08:46:21;;;;;;;1.92;1.50;;;21.30;63.20;;;;;;5013852;28;20034;-68
2021/09/19 08:48:47;;;;;;;6.00;2.83;;;21.30;62.90;;;;;;5014034;28;20100;-68
2021/09/19 08:51:13;;;;;;;4.18;1.70;;;21.30;62.70;;;;;;4996038;28;20396;-69
2021/09/19 08:53:39;;;;;;;2.30;1.60;;;21.40;62.80;;;;;;5013549;28;20040;-68
2021/09/19 08:56:06;;;;;;;3.58;1.50;;;21.40;62.70;;;;;;5013675;28;20038;-69
2021/09/19 08:58:32;;;;;;;1.60;1.40;;;21.50;63.00;;;;;;5013797;28;20471;-70
2021/09/19 09:00:59;;;;;;;3.92;2.08;;;21.50;63.20;;;;;;5013469;28;20045;-69
2021/09/19 09:03:28;;;;;;;2.03;1.50;;;21.50;63.10;;;;;;5013631;28;20038;-69
2021/09/19 09:05:56;;;;;;;2.08;1.50;;;21.50;63.20;;;;;;5013424;28;20037;-69
2021/09/19 09:08:23;;;;;;;3.13;1.58;;;21.50;63.10;;;;;;5013466;28;20074;-69
2021/09/19 09:10:50;;;;;;;4.43;1.70;;;21.50;63.10;;;;;;5013550;28;20521;-69
2021/09/19 09:13:22;;;;;;;3.33;1.80;;;21.50;62.80;;;;;;5013633;28;20034;-68
2021/09/19 09:16:01;;;;;;;2.10;1.45;;;21.50;62.80;;;;;;5013648;28;20034;-68
2021/09/19 09:18:39;;;;;;;1.40;1.25;;;21.60;63.00;;;;;;5013436;28;20037;-68
2021/09/19 09:21:06;;;;;;;1.30;1.17;;;21.60;62.80;;;;;;5013266;28;20213;-68
2021/09/19 09:23:34;;;;;;;4.22;1.60;;;21.60;62.70;;;;;;5013392;28;20097;-68
2021/09/19 09:26:27;;;;;;;1.80;1.50;;;21.70;63.20;;;;;;5013499;28;20048;-67
2021/09/19 09:28:54;;;;;;;4.32;1.73;;;21.60;63.10;;;;;;5013419;28;20038;-68
2021/09/19 09:31:23;;;;;;;2.70;2.10;;;21.70;63.40;;;;;;5013116;28;20037;-68
2021/09/19 09:34:01;;;;;;;2.38;1.45;;;21.70;63.10;;;;;;5013801;28;20109;-68
2021/09/19 09:36:36;;;;;;;2.65;1.70;;;21.70;62.80;;;;;;5016989;28;20033;-67
2021/09/19 09:39:20;;;;;;;2.03;1.40;;;21.70;62.70;;;;;;5016992;28;20461;-69
2021/09/19 09:41:46;;;;;;;2.97;1.67;;;21.80;62.70;;;;;;5017099;28;20038;-68
2021/09/19 09:44:30;;;;;;;2.30;1.63;;;21.80;62.90;;;;;;5017046;28;20075;-68
2021/09/19 09:46:56;;;;;;;3.55;1.70;;;21.80;63.10;;;;;;4999777;28;20453;-69
2021/09/19 09:49:50;;;;;;;3.85;1.80;;;21.80;63.20;;;;;;5016759;28;20114;-66
2021/09/19 09:52:32;;;;;;;3.25;2.05;;;21.90;63.40;;;;;;5016837;28;20501;-69
2021/09/19 09:55:00;;;;;;;7.32;1.92;;;21.90;63.10;;;;;;5016748;28;20033;-69
2021/09/19 09:57:40;;;;;;;6.75;1.70;;;22.00;62.90;;;;;;5016926;28;20034;-68
2021/09/19 10:00:10;;;;;;;3.92;1.80;;;22.10;63.00;;;;;;5016967;28;20041;-66
2021/09/19 10:02:42;;;;;;;1.52;1.42;;;22.10;63.10;;;;;;5016930;28;20080;-68
2021/09/19 10:05:09;;;;;;;2.83;1.77;;;22.10;62.90;;;;;;5016524;28;20449;-67
2021/09/19 10:07:38;;;;;;;2.92;1.45;;;22.20;62.60;;;;;;5016510;28;20037;-67
2021/09/19 10:10:06;;;;;;;4.63;1.70;;;22.10;62.80;;;;;;5016516;28;20042;-70
2021/09/19 10:12:31;;;;;;;3.60;1.60;;;22.10;63.00;;;;;;5016649;28;20045;-67
2021/09/19 10:14:57;;;;;;;3.03;1.58;;;22.10;63.10;;;;;;5016382;28;20030;-66
2021/09/19 10:17:24;;;;;;;2.20;1.70;;;22.10;62.90;;;;;;5016037;28;20497;-67
2021/09/19 10:19:52;;;;;;;3.33;1.70;;;22.00;63.00;;;;;;5016404;28;20078;-67
2021/09/19 10:22:26;;;;;;;2.85;1.70;;;22.00;63.20;;;;;;5016281;28;20026;-67
2021/09/19 10:24:52;;;;;;;3.75;1.70;;;22.00;63.60;;;;;;5016145;28;20128;-67
2021/09/19 10:27:23;;;;;;;2.78;1.70;;;22.00;63.70;;;;;;5015942;28;20041;-66
2021/09/19 10:29:55;;;;;;;2.20;1.50;;;21.90;63.60;;;;;;5016286;28;20510;-66
2021/09/19 10:32:45;;;;;;;2.65;1.50;;;21.90;63.60;;;;;;5016505;28;20030;-66
2021/09/19 10:35:22;;;;;;;2.42;1.50;;;21.90;63.60;;;;;;5016372;28;20081;-67
2021/09/19 10:38:04;;;;;;;4.57;1.70;;;21.90;63.40;;;;;;5016085;28;20076;-66
2021/09/19 10:40:35;;;;;;;3.38;1.40;;;22.00;63.20;;;;;;5016114;28;20081;-66
2021/09/19 10:43:21;;;;;;;2.50;1.50;;;22.00;63.20;;;;;;5015665;28;20026;-67
2021/09/19 10:45:52;;;;;;;3.75;2.05;;;22.00;63.50;;;;;;5014774;28;20034;-66
2021/09/19 10:48:33;;;;;;;3.17;1.98;;;22.10;63.80;;;;;;5015958;28;20061;-68
2021/09/19 10:51:04;;;;;;;7.53;1.63;;;22.20;63.40;;;;;;5015933;28;20041;-66
2021/09/19 10:53:30;;;;;;;2.67;1.92;;;22.30;63.00;;;;;;5015933;28;20042;-66
2021/09/19 10:56:03;;;;;;;3.17;1.85;;;22.30;62.90;;;;;;5015756;28;20045;-66
2021/09/19 10:58:36;;;;;;;3.75;2.13;;;22.30;62.50;;;;;;5014913;28;20037;-66
2021/09/19 11:01:24;;;;;;;3.08;1.80;;;22.40;62.70;;;;;;5015982;28;20044;-67
2021/09/19 11:03:58;;;;;;;2.95;1.98;;;22.50;62.80;;;;;;5015606;28;20038;-66
2021/09/19 11:06:32;;;;;;;3.55;2.30;;;22.60;62.60;;;;;;5015855;28;20112;-67
2021/09/19 11:09:14;;;;;;;2.72;1.85;;;22.70;62.70;;;;;;5015151;28;20042;-66
2021/09/19 11:11:39;;;;;;;3.67;1.70;;;22.80;62.80;;;;;;5015650;28;20103;-67
2021/09/19 11:14:06;;;;;;;2.42;1.60;;;22.90;62.40;;;;;;5015594;28;20104;-66
2021/09/19 11:16:37;;;;;;;1.95;1.65;;;22.90;61.70;;;;;;5015150;28;20038;-67
2021/09/19 11:19:06;;;;;;;6.55;2.00;;;23.10;61.30;;;;;;5015442;28;20483;-68
2021/09/19 11:21:39;;;;;;;2.80;1.60;;;23.20;61.00;;;;;;5015210;28;20042;-69
2021/09/19 11:24:13;;;;;;;2.78;1.75;;;23.30;61.00;;;;;;5014672;28;20054;-68
2021/09/19 11:26:48;;;;;;;4.65;1.70;;;23.30;60.60;;;;;;5014814;28;20124;-67
2021/09/19 11:29:19;;;;;;;3.22;1.50;;;23.20;60.30;;;;;;5014966;28;20041;-67
2021/09/19 11:31:47;;;;;;;5.28;1.75;;;23.20;60.60;;;;;;5014905;28;20037;-68
2021/09/19 11:34:16;;;;;;;3.60;1.75;;;23.20;60.90;;;;;;5015234;28;20120;-67
2021/09/19 11:36:51;;;;;;;4.38;1.85;;;23.10;61.00;;;;;;5015062;28;20105;-67
2021/09/19 11:39:17;;;;;;;3.42;1.80;;;23.10;60.90;;;;;;5014434;28;20046;-68
2021/09/19 11:41:44;;;;;;;2.33;1.45;;;23.10;61.10;;;;;;5015003;28;20029;-67
2021/09/19 11:44:12;;;;;;;3.38;1.50;;;23.00;61.30;;;;;;5014762;28;20474;-68
2021/09/19 11:46:42;;;;;;;2.92;1.67;;;23.00;61.40;;;;;;5014429;28;20045;-67
2021/09/19 11:49:08;;;;;;;2.70;1.42;;;23.00;60.90;;;;;;5014445;28;20030;-67
2021/09/19 11:51:34;;;;;;;4.25;1.83;;;23.00;60.90;;;;;;5014607;28;20030;-67
2021/09/19 11:54:00;;;;;;;2.30;1.67;;;22.90;61.30;;;;;;4996501;28;20096;-68
2021/09/19 11:56:27;;;;;;;3.28;1.80;;;22.90;61.30;;;;;;5014311;28;20049;-67
2021/09/19 11:58:54;;;;;;;2.72;1.60;;;22.90;61.30;;;;;;5014408;28;20065;-67
2021/09/19 12:01:27;;;;;;;3.03;2.00;;;22.90;61.30;;;;;;5013960;28;20034;-67
2021/09/19 12:04:04;;;;;;;3.83;1.75;;;22.90;61.60;;;;;;5014052;28;20069;-67
2021/09/19 12:06:30;;;;;;;3.33;1.73;;;22.90;61.60;;;;;;5014489;28;20386;-67
2021/09/19 12:08:56;;;;;;;2.45;1.70;;;22.80;62.20;;;;;;5013131;28;20493;-66
2021/09/19 12:11:41;;;;;;;3.35;1.70;;;22.90;62.70;;;;;;5013970;28;20073;-67
2021/09/19 12:14:13;;;;;;;4.60;1.70;;;22.90;63.10;;;;;;5014209;28;20482;-67
2021/09/19 12:16:39;;;;;;;3.75;1.85;;;23.00;63.20;;;;;;5014067;28;20045;-67
2021/09/19 12:19:17;;;;;;;2.45;1.45;;;23.00;62.70;;;;;;5014041;28;20049;-67
2021/09/19 12:21:57;;;;;;;3.45;1.70;;;23.10;62.10;;;;;;5014242;28;20065;-67
2021/09/19 12:24:24;;;;;;;3.10;2.13;;;23.20;62.00;;;;;;5014096;28;20045;-67
2021/09/19 12:26:50;;;;;;;4.00;1.40;;;23.20;62.10;;;;;;5014109;28;20026;-67
2021/09/19 12:29:16;;;;;;;6.68;1.70;;;23.20;62.10;;;;;;5013795;28;20501;-67
2021/09/19 12:31:46;;;;;;;2.95;1.40;;;23.20;62.30;;;;;;5013973;28;20044;-67
2021/09/19 12:34:15;;;;;;;6.00;1.70;;;23.20;62.10;;;;;;5013806;28;20034;-67
2021/09/19 12:36:42;;;;;;;5.55;1.77;;;23.30;62.10;;;;;;5013693;28;20038;-68
2021/09/19 12:39:22;;;;;;;5.47;1.67;;;23.30;62.10;;;;;;5013544;28;20065;-68
2021/09/19 12:41:55;;;;;;;2.50;1.70;;;23.30;62.50;;;;;;5013865;28;20034;-68
2021/09/19 12:44:32;;;;;;;6.47;2.20;;;23.30;62.60;;;;;;5013959;28;20045;-68
2021/09/19 12:47:01;;;;;;;1.90;1.63;;;23.30;62.30;;;;;;5013947;28;20026;-67
2021/09/19 12:49:29;;;;;;;4.43;1.70;;;23.40;62.30;;;;;;5013808;28;20030;-67
2021/09/19 12:52:11;;;;;;;3.25;1.60;;;23.30;62.30;;;;;;5013434;28;20390;-67